Time;durP1;ratioP1;P1;durP2;ratioP2;P2;SDS_P1;SDS_P2;PMS_P1;PMS_P2;Temp;Humidity;BMP_temperature;BMP_pressure;BME280_temperature;BME280_humidity;BME280_pressure;Samples;Min_cycle;Max_cycle;Signal;HPM_P1;HPM_P2
2022/12/26 00:02:29;;;;;;;1.27;0.70;;;;;;;;;;21078931;28;20246;-69
2022/12/26 00:12:30;;;;;;;0.60;0.40;;;;;;;;;;21079273;28;20209;-69
2022/12/26 00:22:33;;;;;;;0.60;0.57;;;10.80;99.90;;;;;;21077558;28;20646;-69
2022/12/26 00:32:35;;;;;;;2.63;0.60;;;;;;;;;;21077309;28;20234;-69
2022/12/26 00:42:37;;;;;;;1.50;0.73;;;;;;;;;;21076599;28;20661;-69
2022/12/26 00:52:39;;;;;;;1.70;0.40;;;;;;;;;;21075279;28;20297;-69
2022/12/26 01:02:41;;;;;;;0.47;0.40;;;;;;;;;;21074232;28;20609;-69
2022/12/26 01:12:42;;;;;;;0.83;0.53;;;;;;;;;;21073837;28;20281;-69
2022/12/26 01:22:44;;;;;;;0.63;0.50;;;;;;;;;;21072141;28;20765;-69
2022/12/26 01:32:46;;;;;;;1.10;0.60;;;;;;;;;;21023368;28;20217;-69
2022/12/26 01:42:48;;;;;;;0.70;0.43;;;;;;;;;;21053649;28;20752;-69
2022/12/26 01:52:50;;;;;;;0.70;0.50;;;;;;;;;;21070658;28;20262;-69
2022/12/26 02:13:12;;;;;;;0.77;0.50;;;10.70;99.90;;;;;;21068771;28;20780;-69
2022/12/26 02:23:27;;;;;;;0.57;0.40;;;;;;;;;;21068823;28;20212;-69
2022/12/26 02:33:47;;;;;;;0.97;0.50;;;;;;;;;;21067970;28;20213;-69
2022/12/26 02:44:00;;;;;;;1.90;0.80;;;;;;;;;;21067952;28;20180;-69
2022/12/26 03:14:55;;;;;;;1.87;0.70;;;11.30;99.90;;;;;;21066210;28;20253;-69
2022/12/26 03:35:32;;;;;;;1.10;0.70;;;11.50;99.90;;;;;;21062560;28;20270;-69
2022/12/26 04:58:25;;;;;;;1.03;0.50;;;;;;;;;;21060305;28;20301;-71
2022/12/26 05:29:13;;;;;;;0.73;0.43;;;;;;;;;;21073570;28;20745;-71
2022/12/26 05:39:15;;;;;;;1.23;0.53;;;11.20;99.90;;;;;;21071413;28;20216;-71
2022/12/26 05:49:17;;;;;;;0.70;0.40;;;;;;;;;;21113393;28;20208;-70
2022/12/26 05:59:18;;;;;;;2.47;1.10;;;;;;;;;;21060424;28;20258;-70
2022/12/26 06:09:20;;;;;;;0.60;0.50;;;;;;;;;;21068601;28;20267;-70
2022/12/26 06:19:22;;;;;;;1.93;0.70;;;;;;;;;;21049216;28;20265;-70
2022/12/26 06:29:24;;;;;;;5.10;0.77;;;;;;;;;;20995571;28;20221;-71
2022/12/26 06:39:25;;;;;;;0.73;0.50;;;;;;;;;;20980834;28;20924;-71
2022/12/26 06:49:28;;;;;;;1.03;0.50;;;;;;;;;;20962502;28;20216;-71
2022/12/26 06:59:30;;;;;;;0.80;0.60;;;;;;;;;;20979289;28;20205;-71
2022/12/26 07:09:31;;;;;;;1.10;0.60;;;;;;;;;;21077779;28;20349;-70
2022/12/26 07:19:33;;;;;;;1.13;0.60;;;;;;;;;;21153358;28;20241;-70
2022/12/26 07:29:35;;;;;;;0.63;0.40;;;;;;;;;;21144749;28;20257;-71
2022/12/26 07:39:37;;;;;;;1.10;0.80;;;;;;;;;;21089459;28;20583;-71
2022/12/26 07:49:39;;;;;;;1.40;0.77;;;;;;;;;;21102189;28;20219;-70
2022/12/26 07:59:40;;;;;;;2.50;0.80;;;;;;;;;;21162857;28;20200;-70
2022/12/26 08:09:43;;;;;;;0.60;0.43;;;;;;;;;;21113860;28;20523;-67
2022/12/26 08:19:45;;;;;;;0.83;0.63;;;;;;;;;;21049412;28;20583;-69
2022/12/26 08:29:47;;;;;;;0.73;0.60;;;;;;;;;;21069286;28;20225;-69
2022/12/26 08:39:51;;;;;;;0.50;0.50;;;10.80;99.90;;;;;;21077665;28;20204;-67
2022/12/26 08:49:53;;;;;;;1.83;0.70;;;;;;;;;;21098181;28;20216;-67
2022/12/26 08:59:55;;;;;;;0.67;0.27;;;;;;;;;;21057733;28;20578;-69
2022/12/26 09:09:56;;;;;;;0.40;0.40;;;;;;;;;;20989137;28;20504;-67
2022/12/26 09:19:59;;;;;;;0.63;0.40;;;;;;;;;;21033406;28;20262;-68
2022/12/26 09:30:00;;;;;;;0.60;0.47;;;;;;;;;;21060957;28;20282;-67
2022/12/26 09:40:03;;;;;;;0.70;0.43;;;10.80;99.90;;;;;;21068169;28;20206;-68
2022/12/26 09:50:08;;;;;;;1.30;0.50;;;;;;;;;;21064878;28;20640;-67
2022/12/26 10:00:16;;;;;;;1.20;0.67;;;;;;;;;;21064686;28;20265;-68
2022/12/26 10:10:31;;;;;;;0.37;0.30;;;;;;;;;;21062070;28;20212;-68
2022/12/26 10:20:32;;;;;;;0.50;0.37;;;;;;;;;;21052205;28;20256;-71
2022/12/26 10:30:36;;;;;;;0.87;0.50;;;;;;;;;;21040859;28;20312;-68
2022/12/26 10:40:40;;;;;;;0.30;0.30;;;;;;;;;;21038749;22;20231;-63
2022/12/26 10:50:48;;;;;;;0.93;0.63;;;;;;;;;;21077333;28;20779;-63
2022/12/26 11:00:50;;;;;;;0.40;0.30;;;;;;;;;;21094519;28;20754;-64
2022/12/26 11:11:10;;;;;;;0.20;0.20;;;11.10;99.90;;;;;;21098869;28;20215;-64
2022/12/26 11:21:18;;;;;;;0.93;0.53;;;;;;;;;;21113838;28;20225;-65
2022/12/26 11:31:26;;;;;;;0.50;0.40;;;;;;;;;;21113588;28;20300;-65
2022/12/26 11:41:31;;;;;;;0.53;0.33;;;;;;;;;;21097741;28;20273;-64
2022/12/26 11:51:33;;;;;;;1.07;0.70;;;;;;;;;;21070296;28;20369;-64
2022/12/26 12:01:35;;;;;;;0.43;0.37;;;;;;;;;;20945340;28;20684;-64
2022/12/26 12:11:38;;;;;;;0.53;0.40;;;;;;;;;;20961282;28;20314;-65
2022/12/26 12:21:40;;;;;;;0.30;0.30;;;;;;;;;;20976361;28;20221;-64
2022/12/26 12:32:02;;;;;;;0.87;0.60;;;;;;;;;;21007160;28;20498;-64
2022/12/26 12:42:30;;;;;;;0.57;0.30;;;11.70;99.90;;;;;;20992360;28;20294;-63
2022/12/26 12:52:40;;;;;;;0.63;0.40;;;;;;;;;;20947203;28;20699;-64
2022/12/26 13:02:47;;;;;;;0.47;0.40;;;;;;;;;;20939677;28;20571;-64
2022/12/26 13:12:50;;;;;;;2.53;0.50;;;11.60;99.90;;;;;;20939126;28;20205;-64
2022/12/26 13:33:17;;;;;;;1.83;0.50;;;;;;;;;;20973364;28;20221;-64
2022/12/26 13:54:01;;;;;;;0.43;0.40;;;11.40;99.90;;;;;;20968920;28;20480;-64
2022/12/26 14:04:26;;;;;;;0.40;0.33;;;11.40;99.90;;;;;;20935730;28;20258;-64
2022/12/26 14:14:51;;;;;;;0.30;0.30;;;11.20;99.90;;;;;;20934788;28;20216;-63
2022/12/26 14:25:20;;;;;;;4.07;0.50;;;;;;;;;;20966703;28;20691;-63
2022/12/26 14:35:23;;;;;;;2.00;0.50;;;;;;;;;;20947907;28;20229;-64
2022/12/26 14:45:25;;;;;;;1.00;0.50;;;;;;;;;;20949471;28;20229;-63
2022/12/26 14:55:46;;;;;;;0.40;0.40;;;;;;;;;;21012100;28;20221;-63
2022/12/26 15:05:50;;;;;;;0.23;0.23;;;11.30;99.90;;;;;;21005826;28;20600;-63
2022/12/26 15:16:17;;;;;;;0.67;0.30;;;11.10;99.90;;;;;;21006724;28;20246;-63
2022/12/26 15:26:32;;;;;;;0.30;0.30;;;11.10;99.90;;;;;;21035481;28;20212;-62
2022/12/26 15:36:40;;;;;;;0.40;0.23;;;;;;;;;;21030519;28;20540;-66
2022/12/26 15:46:49;;;;;;;4.00;1.57;;;11.10;99.90;;;;;;21029512;28;20265;-63
2022/12/26 15:56:55;;;;;;;1.63;0.60;;;11.00;99.90;;;;;;21028689;28;20221;-63
2022/12/26 16:07:04;;;;;;;0.93;0.77;;;;;;;;;;21044878;28;20209;-63
2022/12/26 16:17:14;;;;;;;0.60;0.50;;;;;;;;;;21027520;28;20580;-63
2022/12/26 16:27:18;;;;;;;0.10;0.10;;;11.00;99.90;;;;;;21043569;28;20204;-64
2022/12/26 16:37:22;;;;;;;0.20;0.20;;;;;;;;;;21036067;22;20224;-70
2022/12/26 16:47:31;;;;;;;0.70;0.43;;;10.80;99.90;;;;;;21072079;28;20266;-69
2022/12/26 16:57:35;;;;;;;0.30;0.30;;;;;;;;;;21073466;28;20614;-70
2022/12/26 17:07:39;;;;;;;0.20;0.20;;;;;;;;;;21072362;28;20224;-69
2022/12/26 17:17:44;;;;;;;1.03;0.30;;;;;;;;;;21065449;28;20282;-69
2022/12/26 17:28:07;;;;;;;6.03;2.37;;;10.50;99.90;;;;;;21051590;28;20221;-69
2022/12/26 17:38:15;;;;;;;8.13;3.57;;;10.20;99.90;;;;;;21047318;28;20734;-70
2022/12/26 17:48:18;;;;;;;10.20;4.43;;;;;;;;;;21067384;28;20257;-69
2022/12/26 17:58:20;;;;;;;15.80;8.00;;;;;;;;;;21106601;28;20639;-70
2022/12/26 18:08:33;;;;;;;1.37;0.83;;;;;;;;;;21148721;28;20224;-69
2022/12/26 18:18:40;;;;;;;1.50;0.30;;;;;;;;;;21126574;28;20270;-69
2022/12/26 18:28:42;;;;;;;0.27;0.23;;;;;;;;;;21037925;28;20224;-69
2022/12/26 18:38:44;;;;;;;0.30;0.20;;;10.40;99.90;;;;;;21062593;28;20298;-69
2022/12/26 18:48:46;;;;;;;0.73;0.43;;;;;;;;;;21064852;28;20197;-69
2022/12/26 18:58:49;;;;;;;0.27;0.20;;;10.10;99.90;;;;;;21064771;28;20220;-69
2022/12/26 19:08:51;;;;;;;0.30;0.30;;;;;;;;;;21032734;28;20748;-70
2022/12/26 19:18:52;;;;;;;0.57;0.40;;;;;;;;;;21007251;28;20248;-68
2022/12/26 19:28:55;;;;;;;0.60;0.20;;;9.90;99.90;;;;;;21033969;28;20208;-67
2022/12/26 19:38:57;;;;;;;0.97;0.60;;;;;;;;;;21022697;28;20239;-68
2022/12/26 19:48:58;;;;;;;0.27;0.27;;;;;;;;;;20973016;28;20556;-68
2022/12/26 19:59:00;;;;;;;0.20;0.20;;;;;;;;;;20995685;28;20225;-68
2022/12/26 20:09:08;;;;;;;0.30;0.30;;;9.60;99.90;;;;;;21054454;28;20221;-68
2022/12/26 20:19:10;;;;;;;0.80;0.60;;;;;;;;;;21068827;28;20260;-68
2022/12/26 20:29:12;;;;;;;1.37;0.80;;;;;;;;;;21070893;28;20289;-68
2022/12/26 20:39:15;;;;;;;0.60;0.40;;;;;;;;;;21071951;28;20289;-68
2022/12/26 20:49:17;;;;;;;0.50;0.30;;;;;;;;;;21068234;28;20688;-68
2022/12/26 20:59:19;;;;;;;0.20;0.20;;;;;;;;;;21070224;28;20609;-68
2022/12/26 21:09:21;;;;;;;0.67;0.27;;;;;;;;;;21061330;28;20217;-68
2022/12/26 21:19:23;;;;;;;0.10;0.10;;;;;;;;;;21038779;28;20270;-71
2022/12/26 21:29:29;;;;;;;0.30;0.30;;;;;;;;;;21011493;28;20691;-68
2022/12/26 21:39:34;;;;;;;0.20;0.20;;;9.20;99.90;;;;;;21028591;28;20311;-67
2022/12/26 21:49:37;;;;;;;0.20;0.20;;;;;;;;;;21041245;28;20236;-68
2022/12/26 21:59:57;;;;;;;0.47;0.30;;;;;;;;;;21064932;28;20228;-69
2022/12/26 22:09:59;;;;;;;0.73;0.40;;;;;;;;;;21062908;28;20561;-68
2022/12/26 22:20:02;;;;;;;0.40;0.40;;;;;;;;;;21066056;28;20232;-68
2022/12/26 22:30:05;;;;;;;0.17;0.10;;;;;;;;;;21068306;28;20196;-69
2022/12/26 22:40:07;;;;;;;0.40;0.30;;;;;;;;;;21065666;28;20228;-68
2022/12/26 22:50:13;;;;;;;0.10;0.10;;;;;;;;;;21066492;28;20630;-68
2022/12/26 23:00:15;;;;;;;0.13;0.13;;;;;;;;;;21012231;28;20347;-68
2022/12/26 23:10:19;;;;;;;0.70;0.20;;;;;;;;;;21014279;28;20213;-68
2022/12/26 23:30:47;;;;;;;0.30;0.20;;;;;;;;;;21012500;28;20232;-68
2022/12/26 23:40:49;;;;;;;0.20;0.20;;;;;;;;;;21030840;28;20719;-68
2022/12/26 23:50:59;;;;;;;3.53;0.50;;;;;;;;;;21025854;28;20228;-67
